Pagrindinis puslapis
METAR-TAF:

METAR-TAF

Oro uostai :

Krasnodaras, Rusija

platuma: 45-02N, ilguma: 039-09E, Aukštis: 33 m

Dabartinis oras

Ataskaita buvo paskelbta 25 minutes, ne 10:00 UTC
Vėjas 4 kt iš Šiaurės/Šiaurės Rytų, svyruoja nuo Šiaurės Vakarų ir Rytų
Temperatūra 10°C
Drėgmė 66%
Slėgis 1025 hPa
Matomumas 10 km arba daugiau
nėra debesų žemiau 1500 m ir nėra kamuolinių lietaus debesų

METAR: URKK 271000Z 03002MPS 320V080 CAVOK 10/04 Q1025 R23L/CLRD70 NOSIG RMK QFE766

Laikas: 14:25 (10:25 UTC)

Prognozė

Ataskaita buvo paskelbta 2 valandos ir 26 minutes, ne 07:59 UTC
Prognozė galioja nuo 27 metu 09 UTC su 28 metu 09 UTC
Vėjas 6 kt iš Pietryčių
Matomumas 10 km arba daugiau
nėra debesų žemiau 1500 m ir nėra kamuolinių lietaus debesų
Nuo 27 metu 1500 UTC
Vėjas 6 kt iš Vakarų/Šiaurės Vakarų
Matomumas: 6000 m
Išsisklaidę debesys ne aukštis 1600 ft
Laikinai
nuo 27 metu 18 UTC su 28 metu 08 UTC
Matomumas: 0200 m
ne aukštis 200 ft
įšaldymas rūko

TAF: URKK 270759Z 2709/2809 14003MPS CAVOK FM271500 30003MPS 6000 SCT016 TEMPO 2718/2808 0200 FZFG VV002

Orai ataskaitas ir orų prognozės (METAR, TAF).

turimą stotys yra geltonos ir raudonos taškus žemėlapyje.

Perkelti pele per norėdami pamatyti stoties vardą.

Tada spustelėkite, norėdami matyti oro stebėjimo ir prognozės.

Norėdami pakeisti žemėlapį: spustelėkite ant žalios mygtukų su juodo kryžiaus žemyn,; žalią mygtuką su brūkšneliu, jei norite nutolinti; arba žalių rodyklių gretimoms žemėlapius.


METAR-TAF: